createdAt,value
2023-02-16T00:00:57.425Z,101477.72
2023-02-16T00:04:02.020Z,101478.59
2023-02-16T00:07:04.907Z,101468.75
2023-02-16T00:10:08.329Z,101480.38
2023-02-16T00:13:40.811Z,101482.03
2023-02-16T00:16:43.730Z,101475.84
2023-02-16T00:19:47.689Z,101466.94
2023-02-16T00:22:50.351Z,101467.84
2023-02-16T00:25:53.041Z,101459.84
2023-02-16T00:28:59.399Z,101466.06
2023-02-16T00:32:04.800Z,101464.28
2023-02-16T00:35:15.770Z,101452.69
2023-02-16T00:38:20.622Z,101453.59
2023-02-16T00:41:46.888Z,101454.44
2023-02-16T00:44:54.071Z,101449.97
2023-02-16T00:47:56.873Z,101448.19
2023-02-16T00:51:13.804Z,101456.16
2023-02-16T00:54:23.056Z,101444.53
2023-02-16T00:57:26.942Z,101450.75
2023-02-16T01:00:41.716Z,101426.53
2023-02-16T01:03:45.293Z,101446.16
2023-02-16T01:07:07.538Z,101441.72
2023-02-16T01:10:31.006Z,101455.03
2023-02-16T01:13:44.831Z,101446.13
2023-02-16T01:16:47.579Z,101454.97
2023-02-16T01:19:50.272Z,101441.59
2023-02-16T01:22:57.473Z,101442.53
2023-02-16T01:26:03.263Z,101448.78
2023-02-16T01:29:06.428Z,101439.03
2023-02-16T01:32:11.918Z,101440.84
2023-02-16T01:35:18.190Z,101454.19
2023-02-16T01:38:24.235Z,101437.22
2023-02-16T01:41:47.544Z,101442.56
2023-02-16T01:44:59.213Z,101434.53
2023-02-16T01:48:05.636Z,101444.31
2023-02-16T01:51:17.501Z,101425.56
2023-02-16T01:54:39.829Z,101432.72
2023-02-16T01:57:46.027Z,101423.84
2023-02-16T02:01:41.881Z,101430.94
2023-02-16T02:05:06.076Z,101417.56
2023-02-16T02:08:17.501Z,101430.88
2023-02-16T02:11:35.635Z,101426.34
2023-02-16T02:14:40.330Z,101413.84
2023-02-16T02:17:42.933Z,101419.94
2023-02-16T02:21:20.161Z,101416.41
2023-02-16T02:25:03.032Z,101413.66
2023-02-16T02:28:13.506Z,101413.69
2023-02-16T02:31:42.508Z,101401.16
2023-02-16T02:34:58.725Z,101397.63
2023-02-16T02:41:50.705Z,101408.41
2023-02-16T02:44:59.129Z,101398.63
2023-02-16T02:48:09.391Z,101398.50
2023-02-16T02:51:33.790Z,101369.00
2023-02-16T02:55:00.160Z,101408.34
2023-02-16T02:58:24.081Z,101404.75
2023-02-16T03:01:34.097Z,101402.00
2023-02-16T03:04:37.095Z,101403.69
2023-02-16T03:07:50.404Z,101409.84
2023-02-16T03:11:14.193Z,101403.56
2023-02-16T03:14:19.596Z,101408.06
2023-02-16T03:17:52.639Z,101398.38
2023-02-16T03:21:17.587Z,101400.28
2023-02-16T03:24:41.707Z,101402.03
2023-02-16T03:28:02.409Z,101402.03
2023-02-16T03:31:07.473Z,101398.53
2023-02-16T03:34:12.724Z,101391.31
2023-02-16T03:37:21.686Z,101395.69
2023-02-16T03:40:30.170Z,101390.31
2023-02-16T03:43:37.930Z,101384.06
2023-02-16T03:46:40.676Z,101382.34
2023-02-16T03:49:44.766Z,101391.19
2023-02-16T03:53:06.509Z,101395.63
2023-02-16T03:56:09.186Z,101398.28
2023-02-16T03:59:14.861Z,101388.41
2023-02-16T04:02:17.622Z,101401.75
2023-02-16T04:05:21.715Z,101408.84
2023-02-16T04:08:24.530Z,101411.47
2023-02-16T04:11:44.585Z,101414.16
2023-02-16T04:14:47.266Z,101410.66
2023-02-16T04:17:50.203Z,101408.09
2023-02-16T04:20:56.708Z,101407.19
2023-02-16T04:24:00.236Z,101417.00
2023-02-16T04:27:03.439Z,101412.56
2023-02-16T04:30:08.163Z,101409.88
2023-02-16T04:33:16.910Z,101417.88
2023-02-16T04:36:20.961Z,101424.91
2023-02-16T04:39:23.622Z,101420.50
2023-02-16T04:42:26.331Z,101422.28
2023-02-16T04:45:30.543Z,101417.00
2023-02-16T04:48:33.177Z,101420.53
2023-02-16T04:51:40.009Z,101416.94
2023-02-16T04:54:49.808Z,101420.56
2023-02-16T04:57:52.464Z,101423.22
2023-02-16T05:00:55.057Z,101411.69
2023-02-16T05:03:58.132Z,101415.34
2023-02-16T05:07:11.292Z,101401.97
2023-02-16T05:10:15.575Z,101405.59
2023-02-16T05:13:40.672Z,101403.78
2023-02-16T05:16:47.598Z,101411.72
2023-02-16T05:19:51.991Z,101407.22
2023-02-16T05:22:55.957Z,101407.13
2023-02-16T05:25:58.611Z,101402.69
2023-02-16T05:29:01.539Z,101417.75
2023-02-16T05:32:04.959Z,101408.81
2023-02-16T05:35:07.875Z,101418.59
2023-02-16T05:38:11.941Z,101419.47
2023-02-16T05:41:25.170Z,101424.88
2023-02-16T05:44:29.789Z,101431.16
2023-02-16T05:47:32.579Z,101431.16
2023-02-16T05:50:35.199Z,101432.84
2023-02-16T05:53:39.208Z,101429.16
2023-02-16T05:56:46.939Z,101408.66
2023-02-16T05:59:49.586Z,101413.19
2023-02-16T06:02:52.801Z,101423.81
2023-02-16T06:05:56.598Z,101426.50
2023-02-16T06:09:01.870Z,101421.19
2023-02-16T06:12:09.400Z,101423.91
2023-02-16T06:15:26.073Z,101425.69
2023-02-16T06:18:28.705Z,101435.50
2023-02-16T06:21:40.722Z,101426.47
2023-02-16T06:24:44.713Z,101429.25
2023-02-16T06:27:47.676Z,101427.41
2023-02-16T06:30:51.078Z,101438.16
2023-02-16T06:33:56.660Z,101432.75
2023-02-16T06:36:59.325Z,101427.41
2023-02-16T06:40:03.796Z,101438.25
2023-02-16T06:43:06.807Z,101432.84
2023-02-16T06:46:11.594Z,101409.59
2023-02-16T06:49:16.810Z,101435.53
2023-02-16T06:52:19.639Z,101438.22
2023-02-16T06:55:23.936Z,101447.06
2023-02-16T06:58:26.770Z,101443.53
2023-02-16T07:01:29.909Z,101446.19
2023-02-16T07:04:38.769Z,101447.94
2023-02-16T07:07:41.617Z,101447.03
2023-02-16T07:10:50.404Z,101440.72
2023-02-16T07:13:55.720Z,101454.94
2023-02-16T07:17:04.286Z,101448.69
2023-02-16T07:20:13.150Z,101455.94
2023-02-16T07:23:18.831Z,101457.72
2023-02-16T07:26:30.341Z,101475.59
2023-02-16T07:29:33.003Z,101473.81
2023-02-16T07:32:40.246Z,101484.69
2023-02-16T07:35:44.386Z,101473.88
2023-02-16T07:38:47.714Z,101482.78
2023-02-16T07:41:54.832Z,101488.09
2023-02-16T07:45:00.834Z,101484.66
2023-02-16T07:48:06.753Z,101485.56
2023-02-16T07:51:11.707Z,101486.56
2023-02-16T07:54:14.337Z,101491.84
2023-02-16T07:57:18.385Z,101488.41
2023-02-16T08:00:29.953Z,101485.75
2023-02-16T08:03:35.808Z,101486.59
2023-02-16T08:06:41.512Z,101486.06
2023-02-16T08:09:44.626Z,101485.16
2023-02-16T08:12:55.252Z,101478.00
2023-02-16T08:15:58.017Z,101483.22
2023-02-16T08:19:03.588Z,101459.22
2023-02-16T08:22:07.337Z,101473.59
2023-02-16T08:25:10.349Z,101470.09
2023-02-16T08:28:14.819Z,101463.91
2023-02-16T08:31:25.912Z,101461.13
2023-02-16T08:34:28.655Z,101463.84
2023-02-16T08:37:35.984Z,101463.94
2023-02-16T08:40:48.128Z,101460.59
2023-02-16T08:43:52.304Z,101460.69
2023-02-16T08:47:00.343Z,101458.03
2023-02-16T08:50:03.560Z,101458.13
2023-02-16T08:53:06.275Z,101452.78
2023-02-16T08:56:09.833Z,101452.72
2023-02-16T08:59:15.222Z,101445.72
2023-02-16T09:02:20.303Z,101439.47
2023-02-16T09:05:23.666Z,101445.78
2023-02-16T09:08:33.625Z,101446.56
2023-02-16T09:12:01.516Z,101443.91
2023-02-16T09:15:09.500Z,101456.31
2023-02-16T09:18:14.009Z,101460.72
2023-02-16T09:21:19.538Z,101454.59
2023-02-16T09:24:22.917Z,101450.22
2023-02-16T09:27:26.015Z,101447.59
2023-02-16T09:30:30.124Z,101452.09
2023-02-16T09:33:35.961Z,101440.59
2023-02-16T09:36:52.889Z,101441.47
2023-02-16T09:39:58.370Z,101453.06
2023-02-16T09:43:09.397Z,101422.75
2023-02-16T09:46:17.091Z,101432.56
2023-02-16T09:49:28.310Z,101419.16
2023-02-16T09:52:37.642Z,101437.91
2023-02-16T09:55:48.495Z,101432.56
2023-02-16T09:58:57.756Z,101445.94
2023-02-16T10:02:22.396Z,101454.81
2023-02-16T10:05:31.230Z,101446.81
2023-02-16T10:08:39.204Z,101429.84
2023-02-16T10:11:48.868Z,101445.91
2023-02-16T10:14:53.974Z,101446.81
2023-02-16T10:18:07.473Z,101445.88
2023-02-16T10:21:18.031Z,101439.59
2023-02-16T10:24:20.920Z,101444.09
2023-02-16T10:27:24.122Z,101441.41
2023-02-16T10:30:32.855Z,101437.88
2023-02-16T10:33:43.977Z,101430.72
2023-02-16T10:37:11.616Z,101424.50
2023-02-16T10:40:24.351Z,101419.16
2023-02-16T10:43:43.035Z,101411.13
2023-02-16T10:46:50.074Z,101414.72
2023-02-16T10:49:54.385Z,101411.13
2023-02-16T10:53:02.970Z,101389.69
2023-02-16T10:56:34.865Z,101402.19
2023-02-16T10:59:42.428Z,101405.75
2023-02-16T11:02:48.213Z,101407.56
2023-02-16T11:05:56.384Z,101393.22
2023-02-16T11:09:01.146Z,101404.81
2023-02-16T11:12:16.669Z,101390.53
2023-02-16T11:15:44.547Z,101379.81
2023-02-16T11:18:59.718Z,101388.75
2023-02-16T11:22:08.658Z,101380.69
2023-02-16T11:25:27.054Z,101363.69
2023-02-16T11:28:33.544Z,101369.88
2023-02-16T11:31:40.859Z,101368.03
2023-02-16T11:34:46.911Z,101355.47
2023-02-16T11:37:53.834Z,101337.47
2023-02-16T11:40:57.994Z,101340.13
2023-02-16T11:44:10.498Z,101337.38
2023-02-16T11:47:32.843Z,101321.13
2023-02-16T11:50:38.625Z,101319.25
2023-02-16T11:53:44.615Z,101306.72
2023-02-16T11:57:07.413Z,101303.00
2023-02-16T12:00:18.155Z,101305.63
2023-02-16T12:03:51.121Z,101298.59
2023-02-16T12:10:44.419Z,101288.44
2023-02-16T12:13:59.237Z,101281.06
2023-02-16T12:17:16.615Z,101271.09
2023-02-16T12:20:38.344Z,101279.09
2023-02-16T12:23:43.741Z,101271.81
2023-02-16T12:26:53.163Z,101281.66
2023-02-16T12:30:02.747Z,101268.00
2023-02-16T12:33:27.934Z,101270.59
2023-02-16T12:36:58.874Z,101258.06
2023-02-16T12:40:23.538Z,101263.34
2023-02-16T12:43:38.279Z,101261.31
2023-02-16T12:46:45.720Z,101238.91
2023-02-16T12:49:53.758Z,101235.41
2023-02-16T12:52:59.999Z,101241.59
2023-02-16T12:56:10.824Z,101240.53
2023-02-16T12:59:21.312Z,101231.44
2023-02-16T13:02:29.727Z,101230.41
2023-02-16T13:05:42.740Z,101220.22
2023-02-16T13:08:52.376Z,101218.06
2023-02-16T13:12:02.412Z,101211.75
2023-02-16T13:15:17.806Z,101216.28
2023-02-16T13:18:23.181Z,101221.75
2023-02-16T13:21:51.244Z,101220.78
2023-02-16T13:25:10.931Z,101216.50
2023-02-16T13:28:34.182Z,101214.66
2023-02-16T13:31:57.881Z,101221.97
2023-02-16T13:35:44.514Z,101222.91
2023-02-16T13:39:19.172Z,101207.66
2023-02-16T13:42:40.845Z,101214.88
2023-02-16T13:45:46.851Z,101211.53
2023-02-16T13:48:53.488Z,101213.31
2023-02-16T13:51:56.579Z,101218.78
2023-02-16T13:55:01.940Z,101215.13
2023-02-16T13:58:08.673Z,101202.41
2023-02-16T14:01:43.506Z,101206.84
2023-02-16T14:05:07.343Z,101199.50
2023-02-16T14:08:17.081Z,101199.59
2023-02-16T14:11:22.275Z,101203.16
2023-02-16T14:14:31.236Z,101197.72
2023-02-16T14:17:37.734Z,101187.03
2023-02-16T14:20:41.794Z,101180.50
2023-02-16T14:23:46.258Z,101176.78
2023-02-16T14:26:55.506Z,101183.16
2023-02-16T14:30:02.534Z,101180.72
2023-02-16T14:33:21.563Z,101182.75
2023-02-16T14:36:27.673Z,101177.47
2023-02-16T14:39:30.754Z,101185.41
2023-02-16T14:42:35.998Z,101188.31
2023-02-16T14:46:19.327Z,101184.66
2023-02-16T14:49:55.500Z,101192.84
2023-02-16T14:53:28.224Z,101195.38
2023-02-16T14:56:39.778Z,101191.16
2023-02-16T14:59:52.156Z,101197.38
2023-02-16T15:02:58.511Z,101183.00
2023-02-16T15:06:07.837Z,101184.78
2023-02-16T15:09:17.763Z,101186.66
2023-02-16T15:13:15.940Z,101190.28
2023-02-16T15:16:19.259Z,101180.44
2023-02-16T15:19:30.244Z,101185.06
2023-02-16T15:22:33.496Z,101187.59
2023-02-16T15:25:39.438Z,101181.97
2023-02-16T15:28:43.390Z,101189.28
2023-02-16T15:31:46.771Z,101183.97
2023-02-16T15:34:50.995Z,101174.06
2023-02-16T15:38:23.380Z,101167.81
2023-02-16T15:41:34.234Z,101175.94
2023-02-16T15:44:39.184Z,101162.59
2023-02-16T15:47:44.178Z,101163.44
2023-02-16T15:50:49.251Z,101152.81
2023-02-16T15:53:54.366Z,101146.53
2023-02-16T15:57:02.025Z,101152.94
2023-02-16T16:00:07.451Z,101152.09
2023-02-16T16:03:15.315Z,101156.78
2023-02-16T16:06:21.094Z,101156.84
2023-02-16T16:09:26.501Z,101156.06
2023-02-16T16:12:31.440Z,101168.72
2023-02-16T16:15:39.810Z,101174.09
2023-02-16T16:18:47.537Z,101169.59
2023-02-16T16:21:54.267Z,101166.00
2023-02-16T16:24:57.270Z,101165.22
2023-02-16T16:28:04.200Z,101161.53
2023-02-16T16:31:09.546Z,101142.88
2023-02-16T16:34:32.827Z,101167.00
2023-02-16T16:37:37.613Z,101163.34
2023-02-16T16:40:40.712Z,101166.13
2023-02-16T16:43:54.955Z,101164.34
2023-02-16T16:46:57.616Z,101165.31
2023-02-16T16:50:02.564Z,101162.56
2023-02-16T16:53:41.489Z,101168.72
2023-02-16T16:56:44.225Z,101165.19
2023-02-16T16:59:48.182Z,101169.63
2023-02-16T17:02:51.600Z,101173.31
2023-02-16T17:05:54.248Z,101174.13
2023-02-16T17:08:58.476Z,101176.00
2023-02-16T17:12:01.212Z,101184.06
2023-02-16T17:15:08.761Z,101172.38
2023-02-16T17:18:16.233Z,101173.28
2023-02-16T17:21:20.221Z,101167.03
2023-02-16T17:24:22.894Z,101165.34
2023-02-16T17:27:25.491Z,101166.22
2023-02-16T17:30:29.511Z,101164.41
2023-02-16T17:33:32.134Z,101167.94
2023-02-16T17:36:35.549Z,101166.16
2023-02-16T17:39:38.572Z,101164.31
2023-02-16T17:42:41.615Z,101176.00
2023-02-16T17:45:46.923Z,101168.84
2023-02-16T17:48:52.621Z,101172.38
2023-02-16T17:51:56.345Z,101174.19
2023-02-16T17:54:59.565Z,101175.16
2023-02-16T17:58:02.980Z,101170.69
2023-02-16T18:01:07.436Z,101168.00
2023-02-16T18:04:10.234Z,101170.69
2023-02-16T18:07:13.625Z,101152.88
2023-02-16T18:10:21.782Z,101162.66
2023-02-16T18:13:24.400Z,101163.50
2023-02-16T18:16:28.608Z,101168.06
2023-02-16T18:19:32.832Z,101174.22
2023-02-16T18:22:35.510Z,101169.84
2023-02-16T18:25:39.117Z,101175.31
2023-02-16T18:28:41.805Z,101173.56
2023-02-16T18:31:47.616Z,101161.81
2023-02-16T18:34:50.460Z,101170.69
2023-02-16T18:37:53.224Z,101180.59
2023-02-16T18:40:56.428Z,101171.53
2023-02-16T18:43:59.073Z,101160.94
2023-02-16T18:47:06.125Z,101176.06
2023-02-16T18:50:09.760Z,101175.31
2023-02-16T18:53:12.617Z,101172.59
2023-02-16T18:56:15.294Z,101177.09
2023-02-16T18:59:32.040Z,101167.31
2023-02-16T19:02:40.859Z,101151.91
2023-02-16T19:05:43.826Z,101153.78
2023-02-16T19:08:47.480Z,101149.38
2023-02-16T19:11:50.152Z,101152.09
2023-02-16T19:15:02.873Z,101140.53
2023-02-16T19:18:10.068Z,101148.59
2023-02-16T19:21:17.009Z,101146.69
2023-02-16T19:24:19.655Z,101159.34
2023-02-16T19:27:22.437Z,101157.56
2023-02-16T19:30:25.183Z,101153.03
2023-02-16T19:33:29.236Z,101154.81
2023-02-16T19:36:35.064Z,101154.81
2023-02-16T19:39:41.281Z,101162.25
2023-02-16T19:42:44.721Z,101156.72
2023-02-16T19:45:51.278Z,101150.50
2023-02-16T19:49:02.249Z,101157.47
2023-02-16T19:52:05.193Z,101154.78
2023-02-16T19:55:10.067Z,101158.47
2023-02-16T19:58:14.080Z,101162.97
2023-02-16T20:01:22.119Z,101162.06
2023-02-16T20:04:27.329Z,101160.28
2023-02-16T20:07:29.948Z,101161.09
2023-02-16T20:10:33.786Z,101175.66
2023-02-16T20:13:36.559Z,101159.25
2023-02-16T20:16:40.080Z,101162.88
2023-02-16T20:19:44.337Z,101161.94
2023-02-16T20:22:47.518Z,101157.56
2023-02-16T20:25:53.243Z,101161.00
2023-02-16T20:28:57.298Z,101154.00
2023-02-16T20:32:03.198Z,101155.88
2023-02-16T20:35:10.068Z,101153.19
2023-02-16T20:38:13.136Z,101151.28
2023-02-16T20:41:16.120Z,101142.25
2023-02-16T20:44:20.172Z,101135.03
2023-02-16T20:47:22.823Z,101131.38
2023-02-16T20:50:26.788Z,101126.91
2023-02-16T20:53:30.101Z,101127.88
2023-02-16T20:56:32.837Z,101128.81
2023-02-16T20:59:35.472Z,101126.09
2023-02-16T21:02:38.112Z,101125.28
2023-02-16T21:05:42.641Z,101114.25
2023-02-16T21:08:45.552Z,101109.84
2023-02-16T21:11:48.236Z,101108.00
2023-02-16T21:14:50.911Z,101118.84
2023-02-16T21:17:53.562Z,101101.81
2023-02-16T21:20:57.602Z,101102.81
2023-02-16T21:24:00.252Z,101101.97
2023-02-16T21:27:03.875Z,101100.09
2023-02-16T21:30:07.894Z,101109.19
2023-02-16T21:33:10.745Z,101097.41
2023-02-16T21:36:16.721Z,101105.59
2023-02-16T21:39:19.578Z,101104.81
2023-02-16T21:42:21.323Z,101096.75
2023-02-16T21:45:24.067Z,101084.13
2023-02-16T21:48:44.582Z,101079.59
2023-02-16T21:51:49.698Z,101073.16
2023-02-16T21:55:10.776Z,101073.09
2023-02-16T21:58:13.711Z,101064.13
2023-02-16T22:01:22.583Z,101067.94
2023-02-16T22:04:25.753Z,101064.34
2023-02-16T22:07:30.536Z,101063.44
2023-02-16T22:10:33.185Z,101060.78
2023-02-16T22:13:36.366Z,101059.84
2023-02-16T22:16:39.664Z,101061.69
2023-02-16T22:19:42.280Z,101047.47
2023-02-16T22:22:46.833Z,101041.38
2023-02-16T22:25:49.456Z,101052.09
2023-02-16T22:28:52.590Z,101053.88
2023-02-16T22:31:55.259Z,101063.88
2023-02-16T22:35:01.070Z,101066.59
2023-02-16T22:38:05.121Z,101063.81
2023-02-16T22:41:08.612Z,101068.25
2023-02-16T22:44:15.645Z,101062.00
2023-02-16T22:47:18.632Z,101069.00
2023-02-16T22:50:21.270Z,101065.47
2023-02-16T22:53:26.966Z,101067.16
2023-02-16T22:56:30.681Z,101078.03
2023-02-16T22:59:36.725Z,101086.09
2023-02-16T23:02:39.392Z,101077.09
2023-02-16T23:05:48.466Z,101078.03
2023-02-16T23:08:55.004Z,101067.13
2023-02-16T23:11:57.604Z,101066.16
2023-02-16T23:15:00.183Z,101034.84
2023-02-16T23:18:06.914Z,101064.13
2023-02-16T23:21:11.527Z,101064.97
2023-02-16T23:24:17.676Z,101064.16
2023-02-16T23:27:20.273Z,101064.19
2023-02-16T23:30:26.208Z,101067.94
2023-02-16T23:33:29.019Z,101065.28
2023-02-16T23:36:36.053Z,101074.31
2023-02-16T23:39:47.503Z,101068.94
2023-02-16T23:42:50.124Z,101068.16
2023-02-16T23:45:52.860Z,101065.50
2023-02-16T23:48:58.708Z,101060.88
2023-02-16T23:52:03.556Z,101059.13
2023-02-16T23:55:10.716Z,101055.56
2023-02-16T23:58:13.314Z,101046.53
